createdAt,value
2022-10-08T00:00:36.128Z,99.80
2022-10-08T00:01:36.139Z,99.70
2022-10-08T00:02:36.131Z,99.80
2022-10-08T00:03:36.096Z,99.80
2022-10-08T00:04:37.157Z,99.91
2022-10-08T00:05:36.067Z,99.91
2022-10-08T00:06:37.048Z,99.91
2022-10-08T00:07:36.069Z,99.91
2022-10-08T00:08:37.041Z,99.91
2022-10-08T00:09:36.029Z,99.99
2022-10-08T00:10:36.000Z,99.99
2022-10-08T00:11:35.988Z,99.99
2022-10-08T00:12:36.969Z,99.99
2022-10-08T00:13:35.998Z,99.99
2022-10-08T00:14:35.955Z,99.99
2022-10-08T00:15:35.968Z,99.91
2022-10-08T00:16:35.954Z,99.91
2022-10-08T00:17:37.944Z,99.99
2022-10-08T00:18:35.918Z,99.99
2022-10-08T00:19:35.891Z,99.99
2022-10-08T00:20:35.869Z,99.99
2022-10-08T00:21:37.869Z,99.99
2022-10-08T00:22:35.840Z,99.99
2022-10-08T00:23:35.849Z,99.99
2022-10-08T00:24:35.810Z,99.99
2022-10-08T00:25:35.800Z,99.99
2022-10-08T00:26:39.771Z,99.99
2022-10-08T00:27:36.800Z,99.99
2022-10-08T00:28:35.846Z,99.99
2022-10-08T00:29:35.762Z,99.99
2022-10-08T00:30:35.770Z,99.99
2022-10-08T00:31:36.785Z,99.99
2022-10-08T00:32:35.701Z,99.99
2022-10-08T00:33:35.742Z,99.99
2022-10-08T00:34:35.674Z,99.99
2022-10-08T00:35:35.671Z,99.95
2022-10-08T00:36:35.662Z,99.95
2022-10-08T00:37:35.654Z,99.95
2022-10-08T00:38:35.641Z,99.95
2022-10-08T00:39:35.630Z,99.99
2022-10-08T00:40:35.603Z,99.99
2022-10-08T00:41:35.613Z,99.99
2022-10-08T00:42:35.571Z,99.99
2022-10-08T00:43:35.564Z,99.99
2022-10-08T00:44:35.559Z,99.99
2022-10-08T00:45:35.595Z,99.99
2022-10-08T00:46:35.537Z,99.99
2022-10-08T00:47:35.503Z,99.99
2022-10-08T00:48:36.511Z,99.99
2022-10-08T00:49:35.494Z,99.99
2022-10-08T00:50:35.475Z,99.99
2022-10-08T00:51:35.476Z,99.99
2022-10-08T00:52:35.454Z,99.99
2022-10-08T00:53:35.424Z,99.99
2022-10-08T00:54:35.434Z,99.99
2022-10-08T00:55:37.833Z,99.99
2022-10-08T00:56:35.415Z,99.99
2022-10-08T00:57:35.393Z,99.99
2022-10-08T00:58:35.367Z,99.99
2022-10-08T00:59:35.376Z,99.99
2022-10-08T01:00:35.349Z,99.99
2022-10-08T01:01:35.341Z,99.99
2022-10-08T01:02:35.316Z,99.99
2022-10-08T01:03:35.450Z,99.99
2022-10-08T01:04:35.307Z,99.99
2022-10-08T01:05:35.277Z,99.99
2022-10-08T01:06:35.277Z,99.99
2022-10-08T01:07:35.248Z,99.99
2022-10-08T01:08:35.247Z,99.99
2022-10-08T01:09:36.217Z,99.99
2022-10-08T01:10:35.217Z,99.99
2022-10-08T01:11:35.208Z,99.99
2022-10-08T01:12:35.197Z,99.99
2022-10-08T01:13:35.178Z,99.99
2022-10-08T01:14:35.168Z,99.99
2022-10-08T01:15:35.149Z,99.99
2022-10-08T01:16:35.196Z,99.99
2022-10-08T01:17:35.128Z,99.99
2022-10-08T01:18:35.119Z,99.99
2022-10-08T01:19:35.107Z,99.99
2022-10-08T01:20:35.080Z,99.99
2022-10-08T01:21:35.070Z,99.96
2022-10-08T01:22:35.050Z,99.96
2022-10-08T01:23:35.050Z,99.86
2022-10-08T01:24:35.037Z,99.86
2022-10-08T01:25:35.030Z,99.76
2022-10-08T01:26:35.011Z,99.66
2022-10-08T01:27:34.990Z,99.66
2022-10-08T01:28:34.996Z,99.66
2022-10-08T01:29:34.971Z,99.55
2022-10-08T01:30:34.951Z,99.45
2022-10-08T01:31:36.012Z,99.35
2022-10-08T01:32:34.929Z,99.35
2022-10-08T01:33:34.902Z,99.35
2022-10-08T01:34:34.895Z,99.35
2022-10-08T01:35:34.872Z,99.35
2022-10-08T01:36:34.872Z,99.35
2022-10-08T01:37:34.863Z,99.25
2022-10-08T01:38:34.862Z,99.35
2022-10-08T01:39:34.844Z,99.35
2022-10-08T01:40:34.814Z,99.35
2022-10-08T01:41:34.803Z,99.35
2022-10-08T01:42:34.785Z,99.35
2022-10-08T01:43:34.793Z,99.45
2022-10-08T01:44:34.754Z,99.45
2022-10-08T01:45:34.799Z,99.45
2022-10-08T01:46:34.764Z,99.40
2022-10-08T01:47:34.725Z,99.50
2022-10-08T01:48:34.713Z,99.40
2022-10-08T01:49:34.712Z,99.40
2022-10-08T01:50:34.685Z,99.40
2022-10-08T01:51:34.674Z,99.35
2022-10-08T01:52:34.655Z,99.40
2022-10-08T01:53:34.666Z,99.40
2022-10-08T01:54:34.645Z,99.40
2022-10-08T01:55:34.615Z,99.40
2022-10-08T01:56:34.625Z,99.40
2022-10-08T01:57:34.603Z,99.50
2022-10-08T01:58:34.585Z,99.60
2022-10-08T01:59:34.586Z,99.60
2022-10-08T02:00:34.556Z,99.60
2022-10-08T02:01:34.598Z,99.60
2022-10-08T02:02:35.600Z,99.60
2022-10-08T02:03:34.536Z,99.60
2022-10-08T02:04:34.503Z,99.60
2022-10-08T02:05:34.517Z,99.70
2022-10-08T02:06:35.476Z,99.70
2022-10-08T02:07:34.469Z,99.70
2022-10-08T02:08:34.460Z,99.70
2022-10-08T02:09:34.436Z,99.70
2022-10-08T02:10:34.440Z,99.80
2022-10-08T02:11:34.417Z,99.80
2022-10-08T02:12:34.386Z,99.80
2022-10-08T02:13:34.398Z,99.80
2022-10-08T02:14:34.370Z,99.80
2022-10-08T02:15:34.389Z,99.80
2022-10-08T02:16:34.399Z,99.80
2022-10-08T02:17:34.339Z,99.91
2022-10-08T02:18:34.329Z,99.80
2022-10-08T02:19:34.323Z,99.70
2022-10-08T02:20:34.311Z,99.70
2022-10-08T02:21:35.282Z,99.70
2022-10-08T02:22:34.277Z,99.60
2022-10-08T02:23:34.268Z,99.60
2022-10-08T02:24:34.231Z,99.60
2022-10-08T02:25:35.239Z,99.60
2022-10-08T02:26:34.238Z,99.60
2022-10-08T02:27:34.211Z,99.60
2022-10-08T02:28:35.241Z,99.55
2022-10-08T02:29:34.173Z,99.55
2022-10-08T02:30:34.161Z,99.55
2022-10-08T02:31:35.197Z,99.35
2022-10-08T02:32:34.131Z,99.35
2022-10-08T02:33:34.134Z,99.35
2022-10-08T02:34:34.099Z,99.35
2022-10-08T02:35:34.114Z,99.25
2022-10-08T02:36:34.082Z,99.25
2022-10-08T02:37:35.072Z,99.25
2022-10-08T02:38:34.062Z,99.25
2022-10-08T02:39:35.032Z,99.35
2022-10-08T02:40:34.065Z,99.35
2022-10-08T02:41:34.022Z,99.40
2022-10-08T02:42:33.993Z,99.40
2022-10-08T02:43:34.003Z,99.29
2022-10-08T02:44:33.972Z,99.29
2022-10-08T02:45:34.015Z,99.29
2022-10-08T02:46:33.963Z,99.29
2022-10-08T02:47:33.933Z,99.29
2022-10-08T02:48:33.931Z,99.29
2022-10-08T02:49:33.924Z,99.29
2022-10-08T02:50:33.913Z,99.40
2022-10-08T02:51:33.895Z,99.40
2022-10-08T02:52:33.865Z,99.50
2022-10-08T02:53:34.854Z,99.60
2022-10-08T02:54:33.845Z,99.60
2022-10-08T02:55:33.855Z,99.65
2022-10-08T02:56:33.846Z,99.65
2022-10-08T02:57:33.808Z,99.75
2022-10-08T02:58:33.793Z,99.75
2022-10-08T02:59:33.805Z,99.75
2022-10-08T03:00:33.785Z,99.85
2022-10-08T03:01:34.823Z,99.85
2022-10-08T03:02:33.813Z,99.85
2022-10-08T03:03:33.737Z,99.85
2022-10-08T03:04:33.725Z,99.85
2022-10-08T03:05:33.738Z,99.95
2022-10-08T03:06:33.699Z,99.95
2022-10-08T03:07:33.681Z,99.99
2022-10-08T03:08:33.677Z,99.99
2022-10-08T03:09:33.667Z,99.99
2022-10-08T03:10:33.667Z,99.99
2022-10-08T03:11:33.628Z,99.95
2022-10-08T03:12:33.612Z,99.95
2022-10-08T03:13:33.608Z,99.95
2022-10-08T03:14:33.599Z,99.95
2022-10-08T03:15:33.588Z,99.95
2022-10-08T03:16:33.645Z,99.99
2022-10-08T03:17:33.547Z,99.99
2022-10-08T03:18:33.533Z,99.99
2022-10-08T03:19:33.530Z,99.99
2022-10-08T03:20:33.539Z,99.99
2022-10-08T03:21:33.499Z,99.99
2022-10-08T03:22:33.487Z,99.99
2022-10-08T03:23:34.480Z,99.99
2022-10-08T03:24:33.472Z,99.99
2022-10-08T03:25:33.470Z,99.99
2022-10-08T03:26:33.439Z,99.99
2022-10-08T03:27:33.409Z,99.99
2022-10-08T03:28:33.476Z,99.99
2022-10-08T03:29:33.409Z,99.99
2022-10-08T03:30:33.519Z,99.99
2022-10-08T03:31:33.379Z,99.99
2022-10-08T03:32:33.363Z,99.99
2022-10-08T03:33:33.342Z,99.99
2022-10-08T03:34:33.341Z,99.99
2022-10-08T03:35:33.321Z,99.99
2022-10-08T03:36:33.321Z,99.99
2022-10-08T03:37:33.292Z,99.99
2022-10-08T03:38:33.277Z,99.99
2022-10-08T03:39:33.270Z,99.99
2022-10-08T03:40:33.259Z,99.99
2022-10-08T03:41:33.255Z,99.99
2022-10-08T03:42:34.224Z,99.99
2022-10-08T03:43:33.251Z,99.99
2022-10-08T03:44:33.225Z,99.99
2022-10-08T03:45:33.210Z,99.99
2022-10-08T03:46:33.289Z,99.99
2022-10-08T03:47:33.165Z,99.99
2022-10-08T03:48:33.165Z,99.99
2022-10-08T03:49:33.136Z,99.99
2022-10-08T04:03:19.371Z,99.99
2022-10-08T04:04:24.535Z,99.99
2022-10-08T04:05:20.355Z,99.99
2022-10-08T04:06:19.319Z,99.99
2022-10-08T04:07:19.301Z,99.99
2022-10-08T04:08:19.311Z,99.99
2022-10-08T04:09:19.272Z,99.99
2022-10-08T04:10:19.323Z,99.99
2022-10-08T04:11:19.273Z,99.99
2022-10-08T04:12:19.251Z,99.99
2022-10-08T04:13:19.232Z,99.99
2022-10-08T04:14:19.244Z,99.99
2022-10-08T04:15:19.235Z,99.99
2022-10-08T04:16:40.203Z,99.99
2022-10-08T04:17:19.183Z,99.99
2022-10-08T04:18:26.685Z,99.99
2022-10-08T04:19:19.168Z,99.84
2022-10-08T04:20:19.144Z,99.74
2022-10-08T04:21:19.138Z,99.64
2022-10-08T04:22:19.115Z,99.43
2022-10-08T04:23:19.105Z,99.33
2022-10-08T04:24:19.090Z,99.23
2022-10-08T04:25:19.106Z,99.13
2022-10-08T04:26:19.076Z,99.07
2022-10-08T04:27:19.046Z,99.07
2022-10-08T04:28:19.074Z,98.97
2022-10-08T04:29:19.026Z,98.86
2022-10-08T04:30:19.016Z,98.86
2022-10-08T04:31:19.077Z,98.77
2022-10-08T04:32:18.986Z,98.91
2022-10-08T04:33:18.977Z,98.91
2022-10-08T04:34:18.958Z,99.07
2022-10-08T04:35:18.959Z,99.18
2022-10-08T04:36:18.937Z,99.18
2022-10-08T04:37:18.919Z,99.27
2022-10-08T04:38:18.898Z,99.38
2022-10-08T04:39:21.058Z,99.38
2022-10-08T04:40:18.879Z,99.48
2022-10-08T04:41:18.876Z,99.68
2022-10-08T04:42:18.849Z,99.68
2022-10-08T04:43:18.838Z,99.58
2022-10-08T04:44:18.826Z,99.48
2022-10-08T04:45:18.829Z,99.38
2022-10-08T04:46:18.870Z,99.18
2022-10-08T04:47:18.799Z,98.97
2022-10-08T04:48:18.771Z,98.77
2022-10-08T04:49:18.767Z,98.66
2022-10-08T04:50:18.760Z,98.66
2022-10-08T04:51:18.738Z,98.66
2022-10-08T04:52:18.718Z,98.56
2022-10-08T04:53:18.809Z,98.46
2022-10-08T04:54:18.690Z,98.36
2022-10-08T04:55:18.701Z,98.36
2022-10-08T04:56:18.663Z,98.25
2022-10-08T04:57:18.662Z,98.15
2022-10-08T04:58:18.642Z,98.15
2022-10-08T04:59:18.633Z,98.36
2022-10-08T05:00:19.250Z,98.46
2022-10-08T05:01:18.654Z,98.61
2022-10-08T05:02:18.632Z,98.81
2022-10-08T05:03:18.605Z,98.91
2022-10-08T05:04:18.571Z,99.02
2022-10-08T05:05:18.575Z,99.32
2022-10-08T05:06:18.532Z,99.43
2022-10-08T05:07:18.536Z,99.38
2022-10-08T05:08:18.531Z,99.27
2022-10-08T05:09:18.515Z,99.07
2022-10-08T05:10:18.503Z,98.97
2022-10-08T05:11:18.475Z,98.91
2022-10-08T05:12:18.454Z,98.91
2022-10-08T05:13:18.453Z,99.02
2022-10-08T05:14:18.445Z,99.11
2022-10-08T05:15:18.436Z,99.22
2022-10-08T05:16:18.557Z,99.32
2022-10-08T05:17:18.404Z,99.32
2022-10-08T05:18:18.384Z,99.43
2022-10-08T05:19:18.374Z,99.52
2022-10-08T05:20:18.385Z,99.63
2022-10-08T05:21:18.385Z,99.84
2022-10-08T05:22:18.325Z,99.84
2022-10-08T05:23:18.335Z,99.93
2022-10-08T05:24:18.373Z,99.84
2022-10-08T05:25:18.296Z,99.84
2022-10-08T05:26:18.277Z,99.93
2022-10-08T05:27:18.275Z,99.99
2022-10-08T05:28:18.277Z,99.99
2022-10-08T05:29:18.252Z,99.89
2022-10-08T05:30:21.843Z,99.89
2022-10-08T05:31:18.247Z,99.79
2022-10-08T05:32:18.197Z,99.68
2022-10-08T05:33:18.188Z,99.68
2022-10-08T05:34:18.188Z,99.68
2022-10-08T05:35:18.187Z,99.58
2022-10-08T05:36:18.157Z,99.58
2022-10-08T05:37:18.137Z,99.68
2022-10-08T05:38:18.126Z,99.68
2022-10-08T05:39:18.109Z,99.68
2022-10-08T05:40:18.108Z,99.79
2022-10-08T05:41:18.097Z,99.79
2022-10-08T05:42:18.069Z,99.68
2022-10-08T05:43:18.058Z,99.68
2022-10-08T05:44:18.049Z,99.58
2022-10-08T05:45:18.045Z,99.58
2022-10-08T05:46:18.086Z,99.58
2022-10-08T05:47:18.001Z,99.58
2022-10-08T05:48:18.001Z,99.58
2022-10-08T05:49:17.971Z,99.58
2022-10-08T05:50:17.981Z,99.68
2022-10-08T05:51:17.960Z,99.84
2022-10-08T05:52:17.940Z,99.84
2022-10-08T05:53:17.932Z,99.84
2022-10-08T05:54:17.911Z,99.74
2022-10-08T05:55:17.921Z,99.64
2022-10-08T05:56:17.912Z,99.64
2022-10-08T05:57:17.871Z,99.64
2022-10-08T05:58:17.869Z,99.59
2022-10-08T05:59:17.852Z,99.49
2022-10-08T06:00:17.841Z,99.49
2022-10-08T06:01:17.829Z,99.39
2022-10-08T06:02:17.824Z,99.29
2022-10-08T06:03:17.792Z,99.08
2022-10-08T06:04:17.840Z,98.77
2022-10-08T06:05:17.773Z,98.68
2022-10-08T06:06:17.763Z,98.57
2022-10-08T06:07:17.751Z,98.57
2022-10-08T06:08:17.732Z,98.47
2022-10-08T06:09:17.725Z,98.36
2022-10-08T06:10:17.722Z,98.36
2022-10-08T06:11:17.693Z,98.36
2022-10-08T06:12:17.683Z,98.27
2022-10-08T06:13:17.663Z,98.11
2022-10-08T06:14:17.654Z,98.02
2022-10-08T06:15:17.653Z,97.91
2022-10-08T06:16:17.700Z,97.91
2022-10-08T06:17:17.622Z,97.71
2022-10-08T06:18:17.605Z,97.71
2022-10-08T06:19:17.600Z,97.71
2022-10-08T06:20:17.586Z,97.75
2022-10-08T06:21:17.574Z,97.75
2022-10-08T06:22:17.554Z,97.86
2022-10-08T06:23:17.545Z,98.06
2022-10-08T06:24:17.535Z,98.27
2022-10-08T06:25:17.507Z,98.36
2022-10-08T06:26:17.496Z,98.27
2022-10-08T06:27:17.486Z,98.36
2022-10-08T06:28:17.544Z,98.43
2022-10-08T06:29:17.465Z,98.32
2022-10-08T06:30:17.446Z,98.43
2022-10-08T06:31:17.505Z,98.52
2022-10-08T06:32:17.427Z,98.63
2022-10-08T06:33:17.396Z,98.63
2022-10-08T06:34:17.415Z,98.73
2022-10-08T06:35:17.388Z,98.83
2022-10-08T06:36:17.370Z,98.93
2022-10-08T06:37:17.357Z,98.93
2022-10-08T06:38:17.348Z,98.93
2022-10-08T06:39:17.317Z,98.83
2022-10-08T06:40:17.318Z,98.93
2022-10-08T06:41:17.315Z,98.93
2022-10-08T06:42:17.286Z,98.93
2022-10-08T06:43:17.300Z,99.04
2022-10-08T06:44:17.268Z,99.04
2022-10-08T06:45:17.257Z,99.14
2022-10-08T06:46:17.311Z,99.14
2022-10-08T06:47:17.228Z,99.14
2022-10-08T06:48:17.210Z,99.14
2022-10-08T06:49:17.199Z,99.14
2022-10-08T06:50:17.199Z,99.24
2022-10-08T06:51:17.182Z,99.34
2022-10-08T06:52:17.169Z,99.44
2022-10-08T06:53:17.150Z,99.40
2022-10-08T06:54:17.151Z,99.40
2022-10-08T06:55:17.120Z,99.50
2022-10-08T06:56:17.126Z,99.50
2022-10-08T06:57:17.091Z,99.60
2022-10-08T06:58:17.091Z,99.50
2022-10-08T06:59:17.072Z,99.50
2022-10-08T07:00:17.062Z,99.50
2022-10-08T07:01:17.149Z,99.45
2022-10-08T07:02:17.083Z,99.55
2022-10-08T07:03:17.023Z,99.76
2022-10-08T07:04:17.004Z,99.66
2022-10-08T07:05:17.000Z,99.55
2022-10-08T07:06:16.978Z,99.55
2022-10-08T07:07:16.965Z,99.41
2022-10-08T07:08:16.964Z,99.51
2022-10-08T07:09:16.935Z,99.51
2022-10-08T07:10:18.587Z,99.51
2022-10-08T07:11:16.903Z,99.36
2022-10-08T07:12:16.894Z,99.05
2022-10-08T07:13:16.883Z,98.85
2022-10-08T07:14:16.876Z,98.54
2022-10-08T07:15:16.874Z,98.09
2022-10-08T07:16:20.519Z,97.69
2022-10-08T07:17:16.828Z,97.28
2022-10-08T07:18:16.833Z,96.92
2022-10-08T07:19:16.809Z,96.72
2022-10-08T07:20:16.814Z,96.52
2022-10-08T07:21:16.801Z,96.31
2022-10-08T07:22:16.777Z,95.97
2022-10-08T07:23:16.745Z,95.66
2022-10-08T07:24:16.746Z,95.46
2022-10-08T07:25:16.744Z,95.46
2022-10-08T07:26:16.715Z,95.66
2022-10-08T07:27:16.715Z,95.76
2022-10-08T07:28:16.742Z,95.86
2022-10-08T07:29:16.676Z,95.86
2022-10-08T07:30:16.676Z,95.66
2022-10-08T07:31:16.687Z,95.56
2022-10-08T07:32:16.647Z,95.36
2022-10-08T07:33:16.616Z,95.46
2022-10-08T07:34:16.612Z,95.66
2022-10-08T07:35:16.599Z,95.97
2022-10-08T07:36:16.585Z,95.97
2022-10-08T07:37:16.577Z,96.07
2022-10-08T07:38:16.560Z,96.37
2022-10-08T07:39:16.530Z,96.47
2022-10-08T07:40:16.549Z,96.68
2022-10-08T07:41:16.509Z,96.68
2022-10-08T07:42:16.498Z,96.78
2022-10-08T07:43:19.611Z,96.88
2022-10-08T07:44:16.478Z,96.88
2022-10-08T07:45:16.468Z,97.04
2022-10-08T07:46:16.519Z,97.04
2022-10-08T07:47:16.448Z,97.04
2022-10-08T07:48:16.419Z,97.09
2022-10-08T07:49:16.422Z,96.79
2022-10-08T07:50:16.420Z,96.69
2022-10-08T07:51:16.391Z,96.59
2022-10-08T07:52:16.382Z,96.34
2022-10-08T07:53:16.362Z,96.23
2022-10-08T07:54:16.352Z,95.94
2022-10-08T07:55:16.338Z,95.79
2022-10-08T07:56:16.340Z,95.48
2022-10-08T07:57:16.298Z,95.28
2022-10-08T07:58:16.301Z,95.28
2022-10-08T07:59:16.435Z,94.98
2022-10-08T08:00:16.272Z,94.62
2022-10-08T08:01:16.307Z,94.53
2022-10-08T08:02:16.271Z,94.62
2022-10-08T08:03:16.234Z,94.58
2022-10-08T08:04:16.214Z,94.07
2022-10-08T08:05:16.213Z,93.46
2022-10-08T08:06:16.192Z,93.46
2022-10-08T08:07:16.165Z,93.52
2022-10-08T08:08:16.161Z,93.42
2022-10-08T08:09:16.163Z,93.32
2022-10-08T08:10:16.144Z,92.77
2022-10-08T08:11:16.127Z,92.36
2022-10-08T08:12:16.094Z,92.06
2022-10-08T08:13:16.093Z,92.16
2022-10-08T08:14:16.073Z,92.06
2022-10-08T08:15:16.064Z,91.86
2022-10-08T08:16:16.144Z,91.66
2022-10-08T08:17:16.045Z,91.46
2022-10-08T08:18:16.044Z,91.55
2022-10-08T08:19:16.014Z,91.15
2022-10-08T08:20:16.005Z,91.35
2022-10-08T08:21:15.977Z,91.46
2022-10-08T08:22:15.973Z,91.66
2022-10-08T08:23:15.947Z,91.75
2022-10-08T08:24:15.957Z,91.75
2022-10-08T08:25:15.926Z,91.75
2022-10-08T08:26:15.915Z,91.46
2022-10-08T08:27:15.896Z,91.66
2022-10-08T08:28:15.937Z,91.66
2022-10-08T08:29:15.870Z,91.75
2022-10-08T08:30:15.867Z,91.82
2022-10-08T08:31:15.856Z,91.71
2022-10-08T08:32:15.862Z,91.51
2022-10-08T08:33:15.837Z,91.37
2022-10-08T08:34:15.818Z,90.66
2022-10-08T08:35:15.798Z,90.25
2022-10-08T08:36:15.789Z,89.18
2022-10-08T08:37:15.788Z,89.24
2022-10-08T08:38:15.767Z,89.28
2022-10-08T08:39:15.740Z,89.34
2022-10-08T08:40:15.740Z,89.54
2022-10-08T08:41:20.348Z,89.61
2022-10-08T08:42:15.707Z,89.50
2022-10-08T08:43:15.681Z,89.26
2022-10-08T08:44:15.680Z,88.65
2022-10-08T08:45:41.436Z,87.19
2022-10-08T08:46:16.693Z,86.59
2022-10-08T08:47:15.629Z,83.66
2022-10-08T08:48:15.620Z,83.36
2022-10-08T08:49:15.611Z,82.51
2022-10-08T08:50:15.601Z,83.01
2022-10-08T08:51:15.581Z,81.54
2022-10-08T08:52:15.571Z,81.54
2022-10-08T08:53:15.552Z,80.79
2022-10-08T08:54:15.542Z,78.71
2022-10-08T08:55:15.533Z,79.52
2022-10-08T08:56:15.524Z,80.22
2022-10-08T08:57:15.502Z,81.17
2022-10-08T08:58:15.493Z,82.08
2022-10-08T08:59:15.482Z,81.41
2022-10-08T09:00:15.472Z,81.62
2022-10-08T09:01:15.496Z,81.85
2022-10-08T09:02:15.451Z,82.97
2022-10-08T09:03:15.427Z,83.58
2022-10-08T09:04:15.404Z,83.72
2022-10-08T09:05:15.476Z,84.22
2022-10-08T09:06:15.385Z,84.42
2022-10-08T09:07:15.375Z,84.93
2022-10-08T09:08:15.363Z,84.99
2022-10-08T09:09:15.336Z,83.78
2022-10-08T09:10:15.345Z,83.70
2022-10-08T09:11:15.351Z,82.75
2022-10-08T09:12:19.887Z,82.65
2022-10-08T09:13:16.276Z,82.65
2022-10-08T09:14:15.287Z,82.65
2022-10-08T09:15:15.266Z,82.79
2022-10-08T09:16:15.288Z,83.15
2022-10-08T09:17:15.226Z,82.21
2022-10-08T09:18:15.217Z,80.59
2022-10-08T09:19:15.217Z,79.64
2022-10-08T09:20:15.209Z,79.54
2022-10-08T09:21:15.188Z,79.79
2022-10-08T09:22:15.168Z,78.74
2022-10-08T09:23:15.172Z,78.53
2022-10-08T09:24:15.147Z,78.63
2022-10-08T09:25:15.139Z,78.88
2022-10-08T09:26:15.108Z,79.48
2022-10-08T09:27:15.102Z,78.91
2022-10-08T09:28:15.134Z,79.52
2022-10-08T09:29:15.079Z,79.82
2022-10-08T09:30:15.078Z,80.22
2022-10-08T09:31:15.106Z,80.32
2022-10-08T09:32:15.037Z,80.12
2022-10-08T09:33:15.019Z,79.72
2022-10-08T09:34:15.031Z,80.06
2022-10-08T09:35:14.998Z,80.06
2022-10-08T09:36:14.992Z,80.30
2022-10-08T09:37:14.962Z,81.01
2022-10-08T09:38:14.952Z,80.57
2022-10-08T09:39:14.951Z,79.28
2022-10-08T09:40:14.953Z,78.97
2022-10-08T09:41:14.912Z,78.23
2022-10-08T09:42:14.912Z,77.49
2022-10-08T09:43:14.903Z,77.35
2022-10-08T09:44:14.875Z,76.54
2022-10-08T09:45:17.180Z,77.15
2022-10-08T09:46:15.892Z,75.94
2022-10-08T09:47:14.862Z,76.04
2022-10-08T10:03:24.990Z,76.51
2022-10-08T10:04:24.912Z,75.95
2022-10-08T10:05:24.897Z,75.91
2022-10-08T10:06:24.873Z,75.04
2022-10-08T10:07:24.858Z,74.43
2022-10-08T10:08:24.864Z,74.02
2022-10-08T10:09:24.833Z,74.22
2022-10-08T10:10:24.835Z,72.71
2022-10-08T10:11:24.816Z,72.81
2022-10-08T10:12:24.793Z,73.42
2022-10-08T10:13:24.875Z,73.02
2022-10-08T10:14:24.774Z,73.28
2022-10-08T10:15:24.764Z,70.29
2022-10-08T10:16:24.778Z,69.05
2022-10-08T10:17:24.747Z,68.68
2022-10-08T10:18:24.735Z,68.24
2022-10-08T10:19:24.706Z,68.65
2022-10-08T10:20:24.718Z,67.74
2022-10-08T10:21:24.694Z,67.13
2022-10-08T10:22:24.668Z,67.23
2022-10-08T10:23:24.656Z,68.48
2022-10-08T10:24:24.657Z,68.37
2022-10-08T10:25:24.662Z,68.57
2022-10-08T10:26:24.622Z,68.54
2022-10-08T10:27:24.626Z,68.21
2022-10-08T10:28:24.648Z,68.91
2022-10-08T10:29:24.598Z,68.11
2022-10-08T10:30:24.569Z,65.36
2022-10-08T10:31:24.609Z,66.43
2022-10-08T10:32:25.905Z,65.12
2022-10-08T10:33:24.531Z,64.18
2022-10-08T10:34:24.509Z,64.65
2022-10-08T10:35:24.521Z,62.13
2022-10-08T10:36:24.491Z,63.39
2022-10-08T10:37:24.491Z,62.89
2022-10-08T10:38:24.477Z,57.43
2022-10-08T10:39:24.461Z,56.20
2022-10-08T10:40:24.455Z,50.52
2022-10-08T10:41:24.420Z,49.15
2022-10-08T10:42:24.403Z,48.91
2022-10-08T10:43:24.418Z,47.25
2022-10-08T10:44:24.391Z,45.97
2022-10-08T10:45:24.390Z,45.95
2022-10-08T10:46:24.404Z,45.97
2022-10-08T10:47:28.274Z,46.62
2022-10-08T10:48:25.335Z,44.93
2022-10-08T10:49:24.323Z,45.78
2022-10-08T10:50:24.332Z,44.68
2022-10-08T10:51:24.299Z,46.87
2022-10-08T10:52:25.292Z,47.93
2022-10-08T10:53:24.264Z,47.07
2022-10-08T10:54:24.264Z,45.45
2022-10-08T10:55:24.265Z,46.55
2022-10-08T10:56:24.233Z,48.46
2022-10-08T10:57:24.234Z,44.74
2022-10-08T10:58:24.202Z,43.66
2022-10-08T10:59:24.196Z,42.19
2022-10-08T11:00:24.186Z,43.30
2022-10-08T11:01:24.239Z,42.71
2022-10-08T11:02:24.235Z,41.71
2022-10-08T11:03:24.137Z,42.55
2022-10-08T11:04:24.117Z,40.25
2022-10-08T11:05:24.140Z,39.43
2022-10-08T11:06:24.096Z,38.84
2022-10-08T11:07:24.089Z,40.12
2022-10-08T11:08:24.067Z,40.20
2022-10-08T11:09:24.073Z,39.95
2022-10-08T11:10:24.068Z,39.25
2022-10-08T11:11:24.037Z,39.00
2022-10-08T11:12:24.038Z,35.63
2022-10-08T11:13:24.016Z,38.44
2022-10-08T11:14:24.010Z,37.15
2022-10-08T11:15:24.000Z,35.65
2022-10-08T11:16:24.030Z,38.88
2022-10-08T11:17:23.962Z,36.59
2022-10-08T11:18:23.949Z,35.68
2022-10-08T11:19:23.932Z,38.47
2022-10-08T11:20:23.932Z,38.82
2022-10-08T11:21:23.914Z,36.02
2022-10-08T11:22:23.902Z,37.26
2022-10-08T11:23:23.892Z,35.43
2022-10-08T11:24:24.874Z,34.61
2022-10-08T11:25:23.865Z,34.59
2022-10-08T11:26:23.851Z,33.25
2022-10-08T11:27:23.843Z,35.20
2022-10-08T11:28:23.897Z,35.10
2022-10-08T11:29:23.813Z,32.72
2022-10-08T11:30:23.815Z,33.00
2022-10-08T11:31:23.865Z,33.80
2022-10-08T11:32:23.774Z,35.36
2022-10-08T11:33:23.785Z,35.57
2022-10-08T11:34:23.759Z,37.26
2022-10-08T11:35:23.748Z,38.50
2022-10-08T11:36:23.728Z,40.88
2022-10-08T11:37:23.725Z,41.36
2022-10-08T11:38:23.709Z,41.83
2022-10-08T11:39:23.697Z,39.92
2022-10-08T11:40:23.730Z,41.73
2022-10-08T11:41:23.688Z,38.49
2022-10-08T11:42:23.653Z,36.88
2022-10-08T11:43:23.652Z,36.52
2022-10-08T11:44:23.629Z,37.66
2022-10-08T11:45:23.640Z,36.95
2022-10-08T11:46:23.645Z,36.01
2022-10-08T11:47:23.616Z,38.45
2022-10-08T11:48:23.573Z,35.53
2022-10-08T11:49:23.582Z,35.48
2022-10-08T11:50:23.582Z,33.59
2022-10-08T11:51:23.562Z,34.25
2022-10-08T11:52:23.546Z,34.22
2022-10-08T11:53:23.543Z,34.97
2022-10-08T11:54:23.513Z,32.98
2022-10-08T11:55:23.511Z,33.49
2022-10-08T11:56:23.494Z,33.25
2022-10-08T11:57:23.485Z,33.06
2022-10-08T11:58:23.453Z,34.51
2022-10-08T11:59:23.457Z,35.49
2022-10-08T12:00:23.446Z,35.55
2022-10-08T12:01:23.436Z,36.98
2022-10-08T12:02:23.500Z,36.73
2022-10-08T12:03:23.543Z,35.30
2022-10-08T12:04:23.382Z,35.08
2022-10-08T12:05:23.401Z,34.36
2022-10-08T12:06:23.378Z,33.15
2022-10-08T12:07:23.367Z,32.14
2022-10-08T12:08:23.340Z,31.85
2022-10-08T12:09:23.328Z,32.45
2022-10-08T12:10:23.329Z,34.51
2022-10-08T12:11:23.309Z,36.58
2022-10-08T12:12:23.339Z,40.68
2022-10-08T12:13:23.330Z,40.09
2022-10-08T12:14:23.271Z,42.03
2022-10-08T12:15:24.305Z,43.15
2022-10-08T12:16:23.315Z,42.47
2022-10-08T12:17:23.271Z,41.74
2022-10-08T12:18:26.070Z,42.85
2022-10-08T12:19:23.274Z,46.16
2022-10-08T12:20:23.214Z,45.29
2022-10-08T12:21:24.217Z,44.65
2022-10-08T12:22:23.164Z,46.75
2022-10-08T12:23:23.197Z,45.25
2022-10-08T12:24:23.145Z,44.71
2022-10-08T12:25:23.144Z,44.87
2022-10-08T12:26:23.117Z,46.27
2022-10-08T12:27:23.104Z,46.20
2022-10-08T12:28:23.128Z,44.62
2022-10-08T12:29:23.092Z,41.38
2022-10-08T12:30:23.168Z,42.80
2022-10-08T12:31:23.100Z,41.04
2022-10-08T12:32:23.158Z,38.94
2022-10-08T12:33:23.037Z,38.34
2022-10-08T12:34:23.067Z,38.38
2022-10-08T12:35:23.019Z,39.07
2022-10-08T12:36:23.089Z,39.09
2022-10-08T12:37:22.980Z,38.88
2022-10-08T12:38:23.000Z,39.83
2022-10-08T12:39:23.010Z,38.34
2022-10-08T12:40:23.042Z,39.77
2022-10-08T12:41:23.028Z,41.38
2022-10-08T12:42:23.020Z,39.47
2022-10-08T12:43:22.922Z,42.33
2022-10-08T12:44:22.923Z,44.79
2022-10-08T12:45:22.988Z,45.29
2022-10-08T12:46:22.988Z,45.89
2022-10-08T12:47:22.964Z,45.01
2022-10-08T12:48:22.962Z,46.73
2022-10-08T12:49:23.924Z,46.99
2022-10-08T12:50:22.914Z,48.54
2022-10-08T12:51:22.882Z,48.19
2022-10-08T12:52:22.897Z,49.69
2022-10-08T12:53:22.892Z,50.64
2022-10-08T12:54:22.795Z,49.24
2022-10-08T12:55:23.868Z,48.44
2022-10-08T12:56:22.763Z,48.64
2022-10-08T12:57:22.832Z,48.84
2022-10-08T12:58:22.816Z,50.09
2022-10-08T12:59:22.734Z,49.19
2022-10-08T13:00:22.708Z,50.34
2022-10-08T13:01:23.759Z,49.51
2022-10-08T13:02:22.731Z,50.76
2022-10-08T13:03:22.759Z,50.96
2022-10-08T13:04:22.659Z,53.75
2022-10-08T13:05:22.659Z,51.37
2022-10-08T13:06:24.763Z,49.62
2022-10-08T13:07:22.688Z,49.16
2022-10-08T13:08:22.689Z,50.34
2022-10-08T13:09:22.692Z,48.02
2022-10-08T13:10:22.654Z,49.19
2022-10-08T13:11:22.614Z,51.72
2022-10-08T13:12:22.642Z,53.34
2022-10-08T13:13:22.620Z,52.37
2022-10-08T13:14:22.621Z,52.34
2022-10-08T13:15:22.531Z,51.51
2022-10-08T13:16:22.664Z,51.62
2022-10-08T13:17:22.550Z,52.84
2022-10-08T13:18:22.563Z,52.12
2022-10-08T13:19:22.553Z,52.94
2022-10-08T13:20:22.453Z,53.88